Time;durP1;ratioP1;P1;durP2;ratioP2;P2;SDS_P1;SDS_P2;PMS_P1;PMS_P2;Temp;Humidity;BMP_temperature;BMP_pressure;BME280_temperature;BME280_humidity;BME280_pressure;Samples;Min_cycle;Max_cycle;Signal;HPM_P1;HPM_P2
2021/10/19 00:00:45;;;;;;;27.40;16.45;;;;;;;6.59;66.70;100660.83;1749484;81;21027;-67
2021/10/19 00:03:12;;;;;;;23.98;15.68;;;;;;;6.55;66.76;100661.92;1753180;81;21098;-67
2021/10/19 00:05:38;;;;;;;24.60;15.72;;;;;;;6.53;66.84;100659.40;1751984;81;20985;-67
2021/10/19 00:08:05;;;;;;;23.90;15.53;;;;;;;6.49;67.02;100667.08;1750474;81;21053;-67
2021/10/19 00:10:33;;;;;;;25.75;16.62;;;;;;;6.43;67.17;100663.95;1742536;81;20963;-67
2021/10/19 00:13:00;;;;;;;26.07;16.87;;;;;;;6.38;67.21;100663.39;1756759;81;21509;-67
2021/10/19 00:15:26;;;;;;;28.57;16.57;;;;;;;6.36;67.30;100666.55;1718824;82;21010;-67
2021/10/19 00:17:53;;;;;;;27.10;16.37;;;;;;;6.32;67.34;100667.20;1746333;81;21545;-67
2021/10/19 00:20:19;;;;;;;26.15;16.75;;;;;;;6.27;67.45;100672.72;1759495;81;21405;-67
2021/10/19 00:22:46;;;;;;;22.52;15.93;;;;;;;6.22;67.59;100674.75;1762540;81;22536;-67
2021/10/19 00:25:16;;;;;;;24.02;15.35;;;;;;;6.19;67.75;100678.02;1745534;81;21113;-67
2021/10/19 00:27:45;;;;;;;22.85;15.58;;;;;;;6.16;67.86;100679.02;1741318;81;20948;-66
2021/10/19 00:30:12;;;;;;;24.37;17.12;;;;;;;6.12;67.96;100685.38;1752885;81;20988;-67
2021/10/19 00:32:39;;;;;;;23.50;15.95;;;;;;;6.07;68.10;100677.37;1743410;81;21383;-66
2021/10/19 00:35:07;;;;;;;26.07;17.37;;;;;;;6.05;68.36;100679.24;1764284;80;21812;-65
2021/10/19 00:37:35;;;;;;;27.20;16.67;;;;;;;6.01;68.55;100689.91;1757761;80;21020;-66
2021/10/19 00:40:03;;;;;;;28.80;17.65;;;;;;;5.98;68.69;100689.21;1726601;83;20956;-66
2021/10/19 00:42:34;;;;;;;25.68;17.27;;;;;;;5.98;68.87;100685.28;1738675;81;20947;-66
2021/10/19 00:45:00;;;;;;;24.18;16.52;;;;;;;5.99;69.01;100690.47;1746962;81;21047;-67
2021/10/19 00:47:27;;;;;;;22.50;16.25;;;;;;;6.04;69.08;100692.82;1744754;81;21807;-67
2021/10/19 00:49:53;;;;;;;27.90;16.85;;;;;;;6.06;69.27;100691.42;1794050;80;20963;-67
2021/10/19 00:52:19;;;;;;;28.27;17.30;;;;;;;6.09;69.24;100693.42;1802623;78;20955;-67
2021/10/19 00:54:46;;;;;;;24.00;16.50;;;;;;;6.15;69.23;100700.93;1805754;78;20967;-66
2021/10/19 00:57:12;;;;;;;26.07;16.30;;;;;;;6.18;69.25;100698.63;1804207;78;20959;-66
2021/10/19 00:59:43;;;;;;;23.62;16.48;;;;;;;6.22;69.28;100705.37;1826900;78;21797;-66
2021/10/19 01:02:12;;;;;;;25.12;17.02;;;;;;;6.24;69.30;100704.35;1804994;78;20952;-66
2021/10/19 01:04:42;;;;;;;23.18;15.80;;;;;;;6.27;69.25;100702.89;1809157;78;21038;-66
2021/10/19 01:07:09;;;;;;;26.20;16.17;;;;;;;6.31;69.22;100706.17;1769718;80;20965;-67
2021/10/19 01:09:37;;;;;;;26.87;16.70;;;;;;;6.33;69.21;100714.80;1718321;82;21078;-66
2021/10/19 01:12:06;;;;;;;24.45;16.12;;;;;;;6.34;69.17;100712.55;1810289;77;21829;-66
2021/10/19 01:14:33;;;;;;;24.02;15.80;;;;;;;6.36;69.14;100717.23;1806820;78;20959;-66
2021/10/19 01:17:00;;;;;;;23.20;16.62;;;;;;;6.42;69.11;100723.92;1805441;78;20981;-66
2021/10/19 01:19:27;;;;;;;20.50;15.08;;;;;;;6.43;69.07;100725.15;1740711;81;20992;-68
2021/10/19 01:21:58;;;;;;;22.10;15.80;;;;;;;6.43;69.01;100725.62;1753365;80;20935;-67
2021/10/19 01:24:24;;;;;;;26.70;17.10;;;;;;;6.38;69.03;100718.02;1762373;80;22549;-67
2021/10/19 01:26:51;;;;;;;24.20;16.55;;;;;;;6.37;69.03;100724.20;1816695;77;21378;-66
2021/10/19 01:29:17;;;;;;;25.08;16.23;;;;;;;6.37;69.03;100725.95;1819367;78;21011;-66
2021/10/19 01:31:53;;;;;;;22.73;16.87;;;;;;;6.38;69.04;100724.58;1801715;78;21113;-67
2021/10/19 01:34:19;;;;;;;26.90;16.40;;;;;;;6.38;69.07;100714.55;1822049;78;20987;-67
2021/10/19 01:36:46;;;;;;;25.10;16.67;;;;;;;6.41;69.07;100728.80;1805026;78;22446;-66
2021/10/19 01:39:13;;;;;;;21.90;16.02;;;;;;;6.42;69.07;100727.87;1800390;78;20975;-67
2021/10/19 01:41:41;;;;;;;27.75;16.32;;;;;;;6.43;69.13;100728.24;1795527;78;21327;-66
2021/10/19 01:44:08;;;;;;;28.50;17.75;;;;;;;6.40;69.17;100732.36;1808356;78;21039;-67
2021/10/19 01:46:35;;;;;;;26.97;16.23;;;;;;;6.41;69.20;100731.42;1811419;78;21026;-67
2021/10/19 01:49:01;;;;;;;22.70;16.27;;;;;;;6.42;69.23;100738.36;1753849;80;21830;-66
2021/10/19 01:51:28;;;;;;;25.88;16.95;;;;;;;6.39;69.24;100747.73;1749656;81;20996;-66
2021/10/19 01:53:55;;;;;;;24.80;16.93;;;;;;;6.37;69.28;100743.00;1741808;81;21042;-66
2021/10/19 01:56:22;;;;;;;22.30;16.00;;;;;;;6.35;69.33;100750.13;1751268;81;20964;-67
2021/10/19 01:58:49;;;;;;;25.40;17.05;;;;;;;6.33;69.40;100746.75;1746242;81;21050;-66
2021/10/19 02:01:15;;;;;;;24.45;17.25;;;;;;;6.29;69.47;100742.98;1758475;81;22614;-66
2021/10/19 02:03:43;;;;;;;23.65;16.65;;;;;;;6.25;69.53;100746.70;1747022;81;20952;-66
2021/10/19 02:06:09;;;;;;;23.00;15.70;;;;;;;6.20;69.58;100744.81;1765233;80;20956;-67
2021/10/19 02:08:36;;;;;;;25.40;16.87;;;;;;;6.17;69.62;100748.89;1756636;81;20965;-66
2021/10/19 02:11:04;;;;;;;25.57;16.73;;;;;;;6.13;69.68;100746.53;1748568;81;21012;-67
2021/10/19 02:13:31;;;;;;;26.75;18.23;;;;;;;6.10;69.75;100751.96;1739777;81;21837;-66
2021/10/19 02:15:57;;;;;;;31.97;19.02;;;;;;;6.02;69.82;100751.91;1748307;81;21439;-66
2021/10/19 02:18:24;;;;;;;30.68;19.48;;;;;;;6.01;69.85;100765.11;1757062;80;21339;-65
2021/10/19 02:20:50;;;;;;;33.40;19.27;;;;;;;5.96;69.92;100762.72;1736743;81;21043;-66
2021/10/19 02:23:16;;;;;;;27.35;17.67;;;;;;;5.93;70.04;100764.67;1736957;81;20980;-66
2021/10/19 02:25:43;;;;;;;27.85;17.45;;;;;;;5.90;70.10;100762.19;1720340;80;21839;-66
2021/10/19 02:28:09;;;;;;;29.12;17.65;;;;;;;5.88;70.15;100765.33;1726976;81;21004;-68
2021/10/19 02:30:36;;;;;;;26.12;18.07;;;;;;;5.84;70.18;100771.68;1748784;81;21023;-66
2021/10/19 02:33:03;;;;;;;26.95;17.92;;;;;;;5.79;70.24;100773.25;1742511;81;20952;-67
2021/10/19 02:35:29;;;;;;;27.13;17.57;;;;;;;5.77;70.23;100776.39;1739761;81;21004;-68
2021/10/19 02:37:57;;;;;;;26.68;17.35;;;;;;;5.73;70.27;100781.43;1703099;83;21792;-67
2021/10/19 02:40:23;;;;;;;27.45;18.25;;;;;;;5.68;70.37;100777.72;1740954;81;20967;-67
2021/10/19 02:42:50;;;;;;;28.60;18.27;;;;;;;5.64;70.41;100784.06;1745211;81;20996;-67
2021/10/19 02:45:17;;;;;;;36.73;20.50;;;;;;;5.62;70.46;100785.08;1745822;81;21002;-66
2021/10/19 02:47:43;;;;;;;35.38;20.95;;;;;;;5.59;70.60;100796.55;1729114;81;20991;-66
2021/10/19 02:50:10;;;;;;;35.38;20.88;;;;;;;5.59;70.68;100797.02;1754301;81;21892;-66
2021/10/19 02:52:38;;;;;;;28.75;18.67;;;;;;;5.59;70.78;100803.09;1729387;81;21459;-67
2021/10/19 02:55:07;;;;;;;26.52;17.45;;;;;;;5.57;70.87;100802.34;1764712;81;21501;-65
2021/10/19 02:57:33;;;;;;;27.58;17.90;;;;;;;5.56;70.94;100800.64;1740622;81;20963;-66
2021/10/19 03:00:00;;;;;;;26.68;17.25;;;;;;;5.55;71.00;100805.97;1801449;78;21403;-66
2021/10/19 03:02:26;;;;;;;24.82;17.20;;;;;;;5.54;71.02;100805.59;1798335;78;21768;-67
2021/10/19 03:04:53;;;;;;;27.42;19.77;;;;;;;5.51;71.07;100806.60;1796570;77;20932;-67
2021/10/19 03:07:19;;;;;;;33.20;19.95;;;;;;;5.46;71.09;100808.59;1807734;78;21035;-66
2021/10/19 03:09:45;;;;;;;26.62;18.90;;;;;;;5.39;71.16;100806.74;1814273;78;21042;-66
2021/10/19 03:12:13;;;;;;;29.18;19.45;;;;;;;5.36;71.23;100816.08;1807738;78;20979;-66
2021/10/19 03:14:40;;;;;;;24.87;16.52;;;;;;;5.32;71.27;100811.93;1821303;78;21813;-66
2021/10/19 03:17:07;;;;;;;27.02;18.73;;;;;;;5.29;71.35;100813.84;1812876;78;20971;-67
2021/10/19 03:19:33;;;;;;;24.85;17.77;;;;;;;5.23;71.36;100814.17;1801432;78;20956;-66
2021/10/19 03:22:00;;;;;;;26.50;18.45;;;;;;;5.18;71.45;100817.84;1804594;78;20948;-67
2021/10/19 03:24:26;;;;;;;28.80;18.52;;;;;;;5.14;71.49;100815.01;1777978;80;21478;-67
2021/10/19 03:26:52;;;;;;;28.47;18.07;;;;;;;5.10;71.47;100811.29;1759370;81;22409;-67
2021/10/19 03:29:19;;;;;;;28.32;18.73;;;;;;;5.04;71.40;100816.39;1818992;78;20936;-68
2021/10/19 03:31:46;;;;;;;32.05;20.08;;;;;;;4.98;71.32;100814.06;1806626;78;21010;-66
2021/10/19 03:34:12;;;;;;;29.95;19.27;;;;;;;4.91;71.18;100813.97;1809840;78;20983;-66
2021/10/19 03:36:39;;;;;;;27.87;18.77;;;;;;;4.83;71.14;100817.45;1795568;78;21006;-67
2021/10/19 03:39:05;;;;;;;29.27;18.32;;;;;;;4.77;71.06;100820.34;1793710;78;21513;-67
2021/10/19 03:41:31;;;;;;;29.18;18.77;;;;;;;4.69;71.05;100816.78;1813382;78;21411;-66
2021/10/19 03:43:58;;;;;;;30.95;20.62;;;;;;;4.60;70.93;100819.38;1818367;78;21030;-67
2021/10/19 03:46:24;;;;;;;28.05;19.07;;;;;;;4.52;70.97;100824.58;1798516;77;20943;-66
2021/10/19 03:48:51;;;;;;;29.07;18.62;;;;;;;4.44;71.00;100826.70;1774339;80;20933;-67
2021/10/19 03:51:18;;;;;;;29.20;18.65;;;;;;;4.37;71.12;100834.47;1752170;80;22631;-68
2021/10/19 03:53:44;;;;;;;29.75;19.15;;;;;;;4.30;71.19;100836.51;1755962;81;21347;-66
2021/10/19 03:56:10;;;;;;;31.37;19.05;;;;;;;4.23;71.27;100836.39;1749136;81;20939;-66
2021/10/19 03:58:37;;;;;;;29.40;19.23;;;;;;;4.15;71.35;100847.66;1768184;81;20987;-70
2021/10/19 04:01:04;;;;;;;31.95;18.60;;;;;;;4.07;71.45;100855.02;1762256;81;20975;-69
2021/10/19 04:03:30;;;;;;;30.75;19.65;;;;;;;3.99;71.51;100847.05;1768027;81;22200;-69
2021/10/19 04:05:57;;;;;;;29.92;18.85;;;;;;;3.93;71.54;100849.93;1744552;81;21003;-67
2021/10/19 04:08:25;;;;;;;26.90;18.05;;;;;;;3.87;71.58;100848.06;1770156;81;20940;-67
2021/10/19 04:10:51;;;;;;;27.40;18.30;;;;;;;3.84;71.63;100856.86;1763428;79;21612;-68
2021/10/19 04:13:17;;;;;;;30.02;18.67;;;;;;;3.80;71.71;100856.63;1755377;81;20999;-69
2021/10/19 04:15:43;;;;;;;24.60;17.17;;;;;;;3.76;71.86;100857.65;1769963;81;22207;-66
2021/10/19 04:18:11;;;;;;;25.27;17.65;;;;;;;3.77;72.16;100858.53;1767055;81;20940;-67
2021/10/19 04:20:38;;;;;;;23.57;17.32;;;;;;;3.78;72.47;100857.61;1753266;81;21050;-66
2021/10/19 04:23:04;;;;;;;24.95;17.32;;;;;;;3.78;72.63;100860.23;1761749;81;20953;-68
2021/10/19 04:25:31;;;;;;;26.60;17.40;;;;;;;3.80;72.73;100861.00;1740449;82;20983;-69
2021/10/19 04:27:57;;;;;;;20.17;16.25;;;;;;;3.80;72.84;100869.69;1747202;81;21796;-70
2021/10/19 04:30:24;;;;;;;22.37;15.93;;;;;;;3.80;72.95;100874.06;1764114;80;21411;-68
2021/10/19 04:32:50;;;;;;;22.67;15.93;;;;;;;3.81;73.02;100873.99;1758469;79;21413;-71
2021/10/19 04:35:17;;;;;;;20.68;14.05;;;;;;;3.81;72.98;100885.75;1749809;81;21445;-70
2021/10/19 04:37:43;;;;;;;21.70;14.38;;;;;;;3.78;72.99;100879.36;1770742;79;20932;-71
2021/10/19 04:40:12;;;;;;;21.15;15.30;;;;;;;3.79;73.21;100882.36;1759824;81;22453;-70
2021/10/19 04:42:39;;;;;;;20.97;13.58;;;;;;;3.80;73.48;100886.67;1747068;81;21429;-70
2021/10/19 04:45:07;;;;;;;20.70;13.98;;;;;;;3.84;73.73;100889.98;1762705;81;21050;-70
2021/10/19 04:47:35;;;;;;;21.27;13.65;;;;;;;3.85;73.91;100895.59;1740450;81;20987;-70
2021/10/19 04:50:02;;;;;;;20.15;13.55;;;;;;;3.87;73.99;100900.33;1726741;81;20932;-70
2021/10/19 04:52:29;;;;;;;27.42;17.30;;;;;;;3.87;73.96;100900.33;1769564;81;21825;-70
2021/10/19 04:54:56;;;;;;;49.20;31.87;;;;;;;3.89;74.12;100904.56;1756428;81;21090;-69
2021/10/19 04:57:24;;;;;;;176.78;108.00;;;;;;;3.90;74.38;100906.26;1795400;77;20960;-70
2021/10/19 04:59:51;;;;;;;125.55;80.62;;;;;;;3.93;74.57;100911.80;1804146;77;20947;-70
2021/10/19 05:02:17;;;;;;;27.52;20.55;;;;;;;3.96;74.72;100914.30;1820550;78;20991;-71
2021/10/19 05:04:44;;;;;;;20.68;16.20;;;;;;;3.99;74.96;100920.23;1817370;78;22647;-72
2021/10/19 05:07:10;;;;;;;34.30;26.37;;;;;;;4.02;75.11;100917.48;1812136;78;21018;-70
2021/10/19 05:09:38;;;;;;;24.87;20.20;;;;;;;4.03;75.27;100920.48;1812792;78;20994;-69
2021/10/19 05:12:05;;;;;;;21.62;16.73;;;;;;;4.07;75.36;100924.29;1761149;80;20941;-70
2021/10/19 05:14:32;;;;;;;27.87;17.20;;;;;;;4.10;75.60;100936.75;1782944;80;20936;-70
2021/10/19 05:16:59;;;;;;;18.17;12.88;;;;;;;4.14;75.89;100937.46;1797581;78;21860;-70
2021/10/19 05:19:25;;;;;;;18.45;12.73;;;;;;;4.19;76.01;100944.20;1792215;78;21015;-71
2021/10/19 05:21:52;;;;;;;15.05;11.05;;;;;;;4.24;76.10;100949.20;1789918;78;21446;-70
2021/10/19 05:24:20;;;;;;;19.25;12.33;;;;;;;4.29;76.25;100949.88;1789954;78;21034;-71
2021/10/19 05:26:46;;;;;;;21.77;12.65;;;;;;;4.33;76.28;100948.80;1792175;78;21511;-70
2021/10/19 05:29:13;;;;;;;18.37;12.47;;;;;;;4.39;76.43;100955.55;1800578;78;22196;-70
2021/10/19 05:31:40;;;;;;;18.85;11.60;;;;;;;4.43;76.51;100951.41;1789634;78;21039;-70
2021/10/19 05:34:07;;;;;;;20.88;14.07;;;;;;;4.49;76.59;100950.29;1754232;81;21039;-69
2021/10/19 05:36:33;;;;;;;18.48;11.75;;;;;;;4.57;76.60;100963.88;1736268;81;21461;-71
2021/10/19 05:39:00;;;;;;;16.12;11.75;;;;;;;4.65;76.70;100959.61;1749047;81;21054;-70
2021/10/19 05:41:27;;;;;;;16.35;10.50;;;;;;;4.72;76.74;100962.31;1740988;81;21767;-71
2021/10/19 05:43:53;;;;;;;15.65;11.20;;;;;;;4.79;76.74;100966.36;1764396;79;21105;-71
2021/10/19 05:46:20;;;;;;;15.75;10.38;;;;;;;4.85;76.67;100972.63;1774358;78;20947;-71
2021/10/19 05:48:46;;;;;;;17.25;11.18;;;;;;;4.89;76.67;100969.78;1807054;78;21120;-70
2021/10/19 05:51:13;;;;;;;16.82;11.28;;;;;;;4.95;76.67;100975.67;1824802;78;20987;-70
2021/10/19 05:53:39;;;;;;;15.70;11.10;;;;;;;4.99;76.67;100980.68;1808176;78;22245;-70
2021/10/19 05:56:06;;;;;;;16.48;12.07;;;;;;;5.05;76.71;100981.72;1821660;78;21113;-70
2021/10/19 05:58:32;;;;;;;19.45;13.28;;;;;;;5.12;76.74;100980.52;1814044;78;20966;-70
2021/10/19 06:00:59;;;;;;;89.30;40.95;;;;;;;5.22;76.70;100987.94;1813817;78;20991;-71
2021/10/19 06:03:25;;;;;;;82.90;36.40;;;;;;;5.30;76.59;100991.02;1824108;78;21057;-71
2021/10/19 06:05:55;;;;;;;28.07;15.55;;;;;;;5.35;76.47;100995.12;1810038;78;22233;-68
2021/10/19 06:08:21;;;;;;;90.30;35.43;;;;;;;5.44;76.38;100991.22;1811975;78;20978;-68
2021/10/19 06:10:47;;;;;;;33.20;18.07;;;;;;;5.50;76.22;100996.17;1799136;78;21014;-70
2021/10/19 06:13:14;;;;;;;18.62;12.23;;;;;;;5.53;75.99;100998.64;1819374;78;21070;-69
2021/10/19 06:15:46;;;;;;;17.27;11.12;;;;;;;5.53;75.83;100996.48;1825648;78;20952;-70
2021/10/19 06:18:11;;;;;;;14.47;10.82;;;;;;;5.52;75.70;101002.64;1804428;78;21856;-69
2021/10/19 06:20:37;;;;;;;14.95;10.78;;;;;;;5.55;75.59;101000.71;1801339;78;21039;-71
2021/10/19 06:23:04;;;;;;;13.62;9.50;;;;;;;5.58;75.56;100996.63;1821927;78;20947;-70
2021/10/19 06:25:31;;;;;;;17.23;10.72;;;;;;;5.66;75.52;100994.48;1817182;78;21007;-68
2021/10/19 06:27:58;;;;;;;15.90;11.57;;;;;;;5.74;75.42;100998.89;1810258;78;21061;-68
2021/10/19 06:30:25;;;;;;;17.07;12.40;;;;;;;5.83;75.33;100997.59;1811793;78;21725;-68
2021/10/19 06:32:51;;;;;;;19.85;12.88;;;;;;;5.91;75.03;101000.72;1801684;78;20986;-67
2021/10/19 06:35:18;;;;;;;18.17;12.70;;;;;;;5.96;74.75;101005.25;1814320;78;20991;-68
2021/10/19 06:37:44;;;;;;;19.75;12.40;;;;;;;6.03;74.63;100996.63;1809162;78;20967;-68
2021/10/19 06:40:11;;;;;;;17.65;12.10;;;;;;;6.07;74.14;101001.23;1815967;77;21164;-69
2021/10/19 06:42:38;;;;;;;17.00;11.53;;;;;;;6.11;74.02;101001.02;1803660;78;22140;-69
2021/10/19 06:45:07;;;;;;;15.90;10.53;;;;;;;6.21;73.97;100999.63;1813263;77;20983;-71
2021/10/19 06:47:34;;;;;;;12.93;10.15;;;;;;;6.29;73.46;101000.55;1806103;78;21502;-72
2021/10/19 06:50:01;;;;;;;15.38;10.78;;;;;;;6.35;73.17;101002.83;1796148;78;21015;-70
2021/10/19 06:52:31;;;;;;;17.70;12.55;;;;;;;6.44;72.74;101010.23;1762846;80;20992;-69
2021/10/19 06:54:59;;;;;;;15.90;10.65;;;;;;;6.49;72.31;101009.54;1773564;80;21845;-70
2021/10/19 06:57:30;;;;;;;13.98;10.40;;;;;;;6.57;72.06;101004.73;1742565;81;21043;-70
2021/10/19 07:00:03;;;;;;;14.75;10.40;;;;;;;6.64;71.60;101003.93;1716822;81;21000;-71
2021/10/19 07:02:29;;;;;;;16.10;10.88;;;;;;;6.71;71.36;101008.40;1734879;81;20984;-71
2021/10/19 07:04:55;;;;;;;16.97;11.53;;;;;;;6.78;71.22;101010.63;1726288;83;20964;-71
2021/10/19 07:07:21;;;;;;;19.67;13.58;;;;;;;6.87;70.47;101014.54;1734505;81;22791;-70
2021/10/19 07:09:50;;;;;;;17.12;12.58;;;;;;;6.87;69.66;101007.50;1747633;81;20972;-70
2021/10/19 07:12:18;;;;;;;18.15;12.23;;;;;;;6.87;69.27;101017.16;1751619;81;21510;-70
2021/10/19 07:14:44;;;;;;;18.57;13.40;;;;;;;6.85;68.70;101019.87;1754584;81;21007;-71
2021/10/19 07:17:10;;;;;;;18.00;13.32;;;;;;;6.83;68.68;101014.30;1743624;81;20937;-70
2021/10/19 07:19:38;;;;;;;18.25;13.25;;;;;;;6.88;68.91;101015.77;1743318;81;22220;-71
2021/10/19 07:22:07;;;;;;;16.27;12.00;;;;;;;6.99;68.91;101020.91;1739349;81;21478;-70
2021/10/19 07:24:34;;;;;;;16.80;10.98;;;;;;;7.08;68.48;101016.46;1752880;81;21420;-70
2021/10/19 07:27:00;;;;;;;17.98;11.90;;;;;;;7.15;67.75;101019.14;1701677;81;20992;-70
2021/10/19 07:29:27;;;;;;;13.98;10.72;;;;;;;7.21;67.65;101014.84;1737235;81;21526;-70
2021/10/19 07:31:54;;;;;;;17.12;11.55;;;;;;;7.30;67.34;101017.44;1750667;81;21825;-69
2021/10/19 07:34:20;;;;;;;14.60;10.50;;;;;;;7.41;67.38;101017.20;1747368;81;21011;-69
2021/10/19 07:36:47;;;;;;;14.35;9.83;;;;;;;7.56;67.05;101020.77;1747056;81;21055;-70
2021/10/19 07:39:13;;;;;;;13.98;9.35;;;;;;;7.67;66.52;101019.69;1757965;81;21000;-69
2021/10/19 07:41:41;;;;;;;12.78;8.00;;;;;;;7.77;65.74;101019.17;1762307;80;21356;-70
2021/10/19 07:44:07;;;;;;;14.87;9.70;;;;;;;7.81;64.59;101016.26;1734562;81;22774;-70
2021/10/19 07:46:35;;;;;;;13.10;8.90;;;;;;;7.77;64.05;101020.48;1752121;81;21039;-71
2021/10/19 07:49:02;;;;;;;10.13;7.03;;;;;;;7.78;63.85;101021.70;1741582;81;21000;-71
2021/10/19 07:51:29;;;;;;;9.20;6.72;;;;;;;7.85;63.30;101023.05;1743353;81;20980;-69
2021/10/19 07:53:55;;;;;;;9.20;6.10;;;;;;;7.88;62.25;101023.34;1728135;81;21036;-69
2021/10/19 07:56:22;;;;;;;10.50;5.95;;;;;;;7.85;61.80;101031.41;1708771;81;21799;-70
2021/10/19 07:58:49;;;;;;;7.10;5.42;;;;;;;7.90;61.72;101026.25;1735385;81;20984;-69
2021/10/19 08:01:16;;;;;;;8.60;5.10;;;;;;;7.96;59.52;101031.16;1756700;80;20940;-70
2021/10/19 08:03:44;;;;;;;7.45;4.90;;;;;;;8.06;60.03;101031.95;1742470;81;21181;-70
2021/10/19 08:06:10;;;;;;;7.80;5.22;;;;;;;8.22;59.88;101032.75;1753161;81;20952;-69
2021/10/19 08:08:38;;;;;;;8.00;4.95;;;;;;;8.31;58.75;101035.69;1764506;80;21877;-69
2021/10/19 08:11:07;;;;;;;8.95;5.45;;;;;;;8.39;58.11;101037.02;1734671;81;20921;-70
2021/10/19 08:13:35;;;;;;;6.97;4.10;;;;;;;8.49;57.76;101037.73;1761409;80;21428;-69
2021/10/19 08:16:02;;;;;;;5.58;3.30;;;;;;;8.54;56.40;101035.64;1753140;81;21558;-68
2021/10/19 08:18:29;;;;;;;4.35;2.92;;;;;;;8.55;54.95;101040.44;1753053;81;20980;-71
2021/10/19 08:20:57;;;;;;;5.90;3.65;;;;;;;8.57;54.06;101042.03;1751173;81;22326;-71
2021/10/19 08:23:24;;;;;;;6.17;3.90;;;;;;;8.63;54.37;101037.35;1747991;81;21062;-70
2021/10/19 08:25:51;;;;;;;6.20;3.45;;;;;;;8.70;54.65;101036.89;1747570;81;20975;-71
2021/10/19 08:28:25;;;;;;;6.70;3.37;;;;;;;8.77;53.92;101044.77;1758382;81;20992;-71
2021/10/19 08:30:53;;;;;;;5.78;3.85;;;;;;;8.82;53.13;101044.03;1755158;81;21003;-70
2021/10/19 08:33:20;;;;;;;6.10;4.00;;;;;;;8.87;52.82;101047.69;1767893;80;21823;-70
2021/10/19 08:35:47;;;;;;;8.60;3.42;;;;;;;8.86;53.38;101048.62;1763379;80;21518;-69
2021/10/19 08:38:13;;;;;;;6.03;3.42;;;;;;;8.94;52.68;101053.44;1782487;80;21405;-68
2021/10/19 08:40:42;;;;;;;5.35;2.80;;;;;;;9.01;52.23;101051.65;1782136;80;21271;-69
2021/10/19 08:43:09;;;;;;;3.70;2.37;;;;;;;9.09;51.18;101058.61;1780643;80;21068;-69
2021/10/19 08:45:36;;;;;;;5.62;2.70;;;;;;;9.19;50.58;101043.07;1780924;80;21809;-70
2021/10/19 08:48:03;;;;;;;3.52;2.30;;;;;;;9.33;50.56;101040.87;1782355;80;21060;-69
2021/10/19 08:50:30;;;;;;;2.92;1.98;;;;;;;9.44;49.01;101047.62;1782693;80;21557;-69
2021/10/19 08:52:56;;;;;;;3.45;2.42;;;;;;;9.40;48.65;101052.25;1781004;80;21027;-69
2021/10/19 08:55:23;;;;;;;5.10;3.10;;;;;;;9.35;49.20;101051.69;1760755;80;21011;-70
2021/10/19 08:57:49;;;;;;;3.92;2.60;;;;;;;9.40;50.05;101050.94;1767122;80;22160;-69
2021/10/19 09:00:16;;;;;;;5.53;2.83;;;;;;;9.47;49.04;101054.03;1774156;80;21020;-68
2021/10/19 09:02:48;;;;;;;6.92;3.10;;;;;;;9.45;49.32;101050.63;1754554;81;21011;-69
2021/10/19 09:05:22;;;;;;;5.05;2.60;;;;;;;9.36;49.16;101060.00;1732519;81;21643;-67
2021/10/19 09:08:08;;;;;;;5.83;2.50;;;;;;;9.27;49.78;101052.66;1782987;79;20989;-69
2021/10/19 09:10:41;;;;;;;4.42;2.62;;;;;;;9.29;49.35;101052.09;1755555;81;21848;-68
2021/10/19 09:13:15;;;;;;;4.60;2.67;;;;;;;9.41;49.39;101055.73;1764306;80;21230;-69
2021/10/19 09:15:43;;;;;;;4.65;3.02;;;;;;;9.64;49.52;101056.88;1764018;81;20904;-67
2021/10/19 09:18:14;;;;;;;4.00;2.77;;;;;;;9.81;48.85;101054.48;1753573;81;20991;-68
2021/10/19 09:20:44;;;;;;;4.10;2.20;;;;;;;9.82;48.46;101046.45;1733740;82;21003;-70
2021/10/19 09:23:13;;;;;;;3.67;1.90;;;;;;;9.71;47.78;101064.78;1733527;82;21815;-68
2021/10/19 09:25:42;;;;;;;4.67;1.80;;;;;;;9.69;46.55;101054.81;1733381;82;21002;-69
2021/10/19 09:28:11;;;;;;;2.98;1.60;;;;;;;9.73;46.66;101055.81;1734611;82;20971;-68
2021/10/19 09:30:47;;;;;;;4.62;1.85;;;;;;;9.75;47.02;101053.95;1704197;82;20987;-69
2021/10/19 09:33:17;;;;;;;5.20;2.10;;;;;;;9.90;47.13;101040.69;1735104;82;21423;-69
2021/10/19 09:35:51;;;;;;;3.30;2.00;;;;;;;10.14;47.15;101050.11;1735957;81;20924;-69
2021/10/19 09:38:18;;;;;;;3.67;2.00;;;;;;;10.34;46.43;101049.64;1734941;82;21036;-68
2021/10/19 09:40:48;;;;;;;3.15;2.17;;;;;;;10.38;46.29;101050.27;1735056;82;20948;-69
2021/10/19 09:43:18;;;;;;;3.33;2.42;;;;;;;10.28;46.40;101043.44;1734942;82;21479;-68
2021/10/19 09:45:50;;;;;;;3.35;2.20;;;;;;;10.18;46.59;101044.98;1719020;81;21324;-68
2021/10/19 09:48:18;;;;;;;5.45;2.10;;;;;;;10.15;46.07;101044.72;1779455;80;21740;-68
2021/10/19 09:50:46;;;;;;;3.83;2.10;;;;;;;10.06;46.14;101044.02;1788325;80;20976;-68
2021/10/19 09:53:14;;;;;;;4.72;2.40;;;;;;;9.95;46.05;101041.23;1789022;79;20933;-67
2021/10/19 09:55:42;;;;;;;3.55;2.30;;;;;;;9.80;45.99;101052.31;1787705;80;20956;-69
2021/10/19 09:58:09;;;;;;;4.28;2.50;;;;;;;9.68;46.45;101047.84;1769161;81;21469;-69
2021/10/19 10:00:37;;;;;;;4.25;2.30;;;;;;;9.63;46.78;101040.69;1768824;81;22217;-69
2021/10/19 10:03:04;;;;;;;5.97;2.12;;;;;;;9.67;46.76;101041.72;1757330;81;20952;-68
2021/10/19 10:05:33;;;;;;;3.25;1.70;;;;;;;9.83;47.56;101040.23;1740168;82;20951;-68
2021/10/19 10:08:01;;;;;;;4.12;1.70;;;;;;;10.00;46.33;101036.48;1759007;81;20960;-67
2021/10/19 10:10:29;;;;;;;3.65;1.80;;;;;;;10.09;46.28;101045.11;1764483;81;21585;-68
2021/10/19 10:13:10;;;;;;;4.22;1.90;;;;;;;10.15;45.74;101039.91;1790504;80;22755;-68
2021/10/19 14:05:01;;;;;;;4.90;1.90;;;;;;;16.29;29.41;101013.61;1854464;76;28382;-69
2021/10/19 14:07:28;;;;;;;3.12;1.90;;;;;;;16.29;29.09;101020.77;1827452;77;21031;-69
2021/10/19 14:09:54;;;;;;;5.30;1.70;;;;;;;16.29;29.50;101018.10;1816588;78;22210;-68
2021/10/19 14:12:21;;;;;;;3.77;1.80;;;;;;;16.18;29.64;101020.44;1795090;78;21383;-71
2021/10/19 14:14:48;;;;;;;4.47;1.98;;;;;;;15.98;29.65;101025.44;1775223;80;21055;-70
2021/10/19 14:17:15;;;;;;;6.35;1.70;;;;;;;15.89;30.07;101028.45;1794967;79;20952;-70
2021/10/19 14:19:42;;;;;;;4.62;1.75;;;;;;;15.82;30.69;101035.31;1795098;79;20992;-70
2021/10/19 14:22:09;;;;;;;4.42;1.90;;;;;;;15.69;30.43;101029.42;1795426;79;21796;-71
2021/10/19 14:24:36;;;;;;;4.45;2.00;;;;;;;15.55;30.48;101035.98;1794863;79;21513;-71
2021/10/19 14:27:03;;;;;;;4.40;2.47;;;;;;;15.37;30.91;101033.63;1808168;78;20921;-70
2021/10/19 14:29:31;;;;;;;14.13;2.65;;;;;;;15.19;30.84;101037.42;1827494;78;20941;-71
2021/10/19 14:31:57;;;;;;;7.08;2.30;;;;;;;15.06;31.47;101034.17;1828022;78;20984;-70
2021/10/19 14:34:24;;;;;;;8.63;2.45;;;;;;;14.89;32.50;101036.47;1827541;77;21744;-71
2021/10/19 14:36:51;;;;;;;7.85;2.58;;;;;;;14.65;32.16;101037.25;1827375;78;21001;-70
2021/10/19 14:39:23;;;;;;;5.05;2.98;;;;;;;14.39;32.16;101039.95;1827429;78;20949;-71
2021/10/19 14:41:51;;;;;;;5.60;2.70;;;;;;;14.05;32.79;101036.13;1827820;78;20953;-70
2021/10/19 14:44:18;;;;;;;4.92;3.30;;;;;;;13.73;33.58;101034.82;1826372;78;21043;-71
2021/10/19 14:46:45;;;;;;;5.83;3.60;;;;;;;13.39;33.76;101044.67;1827745;78;21776;-71
2021/10/19 14:49:15;;;;;;;9.93;2.90;;;;;;;13.09;34.58;101045.28;1827237;78;21438;-70
2021/10/19 14:51:49;;;;;;;9.20;2.58;;;;;;;12.85;35.33;101052.05;1826357;77;21047;-72
2021/10/19 14:54:16;;;;;;;4.72;1.98;;;;;;;12.53;36.21;101051.38;1819872;78;21520;-71
2021/10/19 14:56:43;;;;;;;3.58;2.10;;;;;;;12.18;36.94;101055.89;1819490;78;21085;-71
2021/10/19 14:59:09;;;;;;;4.10;2.00;;;;;;;11.90;37.80;101053.13;1807052;78;22279;-69
2021/10/19 15:01:37;;;;;;;4.58;2.40;;;;;;;11.64;37.71;101049.71;1791327;78;21031;-68
2021/10/19 15:04:04;;;;;;;4.12;2.62;;;;;;;11.43;37.26;101055.61;1791639;78;21018;-69
2021/10/19 15:06:32;;;;;;;6.08;2.80;;;;;;;11.32;37.50;101067.92;1796125;79;21053;-69
2021/10/19 15:08:58;;;;;;;5.78;2.85;;;;;;;11.10;38.12;101065.96;1796274;79;21034;-68
2021/10/19 15:11:25;;;;;;;6.12;3.30;;;;;;;10.78;39.35;101069.51;1796286;79;21532;-69